Time;durP1;ratioP1;P1;durP2;ratioP2;P2;SDS_P1;SDS_P2;PMS_P1;PMS_P2;Temp;Humidity;BMP_temperature;BMP_pressure;BME280_temperature;BME280_humidity;BME280_pressure;Samples;Min_cycle;Max_cycle;Signal;HPM_P1;HPM_P2
2023/08/31 00:01:32;;;;;;;3.97;3.10;;;;;;;;;;5062188;28;20435;-71
2023/08/31 00:04:01;;;;;;;6.03;3.63;;;;;;;;;;5076259;28;20431;-72
2023/08/31 00:06:28;;;;;;;4.60;3.58;;;;;;;;;;5073868;28;20427;-72
2023/08/31 00:08:55;;;;;;;4.57;3.20;;;;;;;;;;5068809;28;20475;-72
2023/08/31 00:11:22;;;;;;;4.45;3.10;;;;;;;;;;5082816;28;20439;-72
2023/08/31 00:13:49;;;;;;;5.10;3.30;;;;;;;;;;5084533;28;20487;-72
2023/08/31 00:16:16;;;;;;;4.80;3.57;;;;;;;;;;5073284;28;20926;-71
2023/08/31 00:18:44;;;;;;;5.10;3.13;;;;;;;;;;5059040;28;20416;-71
2023/08/31 00:21:13;;;;;;;6.63;3.78;;;;;;;;;;5065418;28;20906;-72
2023/08/31 00:23:40;;;;;;;5.53;3.28;;;;;;;;;;5059488;28;20405;-70
2023/08/31 00:26:08;;;;;;;7.13;3.63;;;;;;;;;;5067321;28;20690;-70
2023/08/31 00:28:36;;;;;;;4.00;3.47;;;;;;;;;;5068085;28;20874;-72
2023/08/31 00:31:04;;;;;;;5.55;3.38;;;;;;;;;;5065840;28;20455;-71
2023/08/31 00:33:33;;;;;;;4.35;3.28;;;;;;;;;;5064465;28;20438;-71
2023/08/31 00:36:03;;;;;;;5.15;3.53;;;;;;;;;;5068409;28;20736;-71
2023/08/31 00:38:31;;;;;;;5.70;4.00;;;;;;;;;;5063302;28;20451;-71
2023/08/31 00:40:59;;;;;;;5.88;3.22;;;;;;;;;;5061288;28;20423;-72
2023/08/31 00:43:26;;;;;;;6.50;3.35;;;;;;;;;;5067973;28;20519;-72
2023/08/31 00:45:57;;;;;;;5.25;3.65;;;;;;;;;;5066995;28;20424;-72
2023/08/31 00:48:26;;;;;;;4.95;3.15;;;;;;;;;;5068354;28;20450;-71
2023/08/31 00:50:53;;;;;;;6.28;3.60;;;;;;;;;;5065044;28;20425;-71
2023/08/31 00:53:20;;;;;;;5.88;3.45;;;;;;;;;;5061805;28;20437;-71
2023/08/31 00:55:49;;;;;;;6.40;3.37;;;;;;;;;;5067075;28;20522;-71
2023/08/31 00:58:16;;;;;;;5.85;3.67;;;;;;;;;;5064511;28;20432;-72
2023/08/31 01:00:45;;;;;;;4.10;3.43;;;;;;;;;;5058773;28;20427;-70
2023/08/31 01:03:14;;;;;;;7.40;3.80;;;;;;;;;;5059535;28;20455;-72
2023/08/31 01:05:47;;;;;;;6.22;4.28;;;;;;;;;;5059110;28;20936;-71
2023/08/31 01:08:22;;;;;;;5.43;3.77;;;;;;;;;;5058843;28;20427;-73
2023/08/31 01:10:56;;;;;;;6.43;3.75;;;;;;;;;;5064777;28;20439;-71
2023/08/31 01:13:25;;;;;;;6.35;3.75;;;;;;;;;;5065810;28;20452;-72
2023/08/31 01:15:54;;;;;;;7.03;4.63;;;;;;;;;;5065256;28;20435;-72
2023/08/31 01:18:24;;;;;;;4.47;3.70;;;;;;;;;;5059209;28;20425;-71
2023/08/31 01:20:54;;;;;;;5.68;4.70;;;;;;;;;;5066560;28;20932;-72
2023/08/31 01:23:22;;;;;;;4.68;3.88;;;;;;;;;;5066179;28;20851;-71
2023/08/31 01:25:50;;;;;;;5.57;4.20;;;;;;;;;;5066285;28;20878;-73
2023/08/31 01:28:17;;;;;;;6.18;4.30;;;;;;;;;;5066009;28;20423;-72
2023/08/31 01:30:45;;;;;;;6.82;4.20;;;;;;;;;;5066175;28;20431;-73
2023/08/31 01:33:12;;;;;;;7.13;5.00;;;;;;;;;;5061113;28;20760;-71
2023/08/31 01:35:42;;;;;;;5.22;4.20;;;;;;;;;;5064561;28;20427;-72
2023/08/31 01:38:10;;;;;;;5.85;4.55;;;;;;;;;;5066242;28;20423;-72
2023/08/31 01:40:40;;;;;;;8.35;4.20;;;;;;;;;;5064352;28;20435;-71
2023/08/31 01:43:09;;;;;;;4.77;3.80;;;;;;;;;;5067447;28;20438;-71
2023/08/31 01:45:37;;;;;;;7.15;4.28;;;;;;;;;;5065917;28;20427;-71
2023/08/31 01:48:04;;;;;;;6.50;3.90;;;;;;;;;;5066432;28;20423;-71
2023/08/31 01:50:32;;;;;;;4.70;3.70;;;;;;;;;;5062866;28;20435;-72
2023/08/31 01:52:59;;;;;;;6.07;3.72;;;;;;;;;;5061089;28;20543;-71
2023/08/31 01:55:26;;;;;;;5.10;3.78;;;;;;;;;;5067641;28;20420;-72
2023/08/31 01:57:53;;;;;;;4.30;3.35;;;;;;;;;;5057046;28;20442;-73
2023/08/31 02:00:22;;;;;;;6.57;3.55;;;;;;;;;;5064721;28;20439;-71
2023/08/31 02:02:49;;;;;;;3.70;3.00;;;;;;;;;;5066090;28;20450;-72
2023/08/31 02:05:16;;;;;;;4.20;3.38;;;;;;;;;;5057814;28;20448;-71
2023/08/31 02:07:43;;;;;;;5.07;3.20;;;;;;;;;;5058454;28;20433;-71
2023/08/31 02:10:10;;;;;;;3.80;2.60;;;;;;;;;;5061236;28;20450;-71
2023/08/31 02:12:38;;;;;;;4.18;3.00;;;;;;;;;;5064252;28;20435;-71
2023/08/31 02:15:05;;;;;;;4.50;2.88;;;;;;;;;;5064352;28;20485;-72
2023/08/31 02:17:35;;;;;;;4.80;3.10;;;;;;;;;;5066733;28;20408;-72
2023/08/31 02:20:04;;;;;;;4.38;3.10;;;;;;;;;;5067321;28;20412;-71
2023/08/31 02:22:32;;;;;;;4.43;3.00;;;;;;;;;;5059612;28;20437;-71
2023/08/31 02:24:59;;;;;;;3.80;3.03;;;;;;;;;;5063716;28;20431;-71
2023/08/31 02:27:26;;;;;;;3.58;2.97;;;;;;;;;;5066770;28;20439;-71
2023/08/31 02:29:53;;;;;;;4.38;3.20;;;;;;;;;;5065567;28;20431;-73
2023/08/31 02:32:20;;;;;;;4.72;3.10;;;;;;;;;;5064837;28;20470;-72
2023/08/31 02:34:49;;;;;;;4.57;3.00;;;;;;;;;;5065696;28;20805;-71
2023/08/31 02:37:16;;;;;;;4.03;3.13;;;;;;;;;;5064508;28;20434;-71
2023/08/31 02:39:43;;;;;;;4.75;3.30;;;;;;;;;;5064341;28;20450;-72
2023/08/31 02:42:10;;;;;;;4.10;2.97;;;;;;;;;;5062074;28;20906;-70
2023/08/31 02:44:37;;;;;;;4.80;2.80;;;;;;;;;;5058874;28;20440;-71
2023/08/31 02:47:04;;;;;;;3.58;3.05;;;;;;;;;;5066833;28;20510;-71
2023/08/31 02:49:31;;;;;;;4.65;3.10;;;;;;;;;;5060773;28;20478;-71
2023/08/31 02:51:59;;;;;;;4.82;3.00;;;;;;;;;;5066770;28;20523;-71
2023/08/31 02:54:26;;;;;;;3.70;3.30;;;;;;;;;;5065847;28;20435;-72
2023/08/31 02:56:53;;;;;;;5.18;3.60;;;;;;;;;;5064198;28;20440;-72
2023/08/31 02:59:20;;;;;;;5.78;3.92;;;;;;;;;;5067153;28;20431;-71
2023/08/31 03:01:47;;;;;;;3.80;3.40;;;;;;;;;;5066001;28;20439;-71
2023/08/31 03:04:15;;;;;;;3.65;2.92;;;;;;;;;;5067899;28;20420;-70
2023/08/31 03:06:42;;;;;;;3.90;3.20;;;;;;;;;;5064666;28;20922;-71
2023/08/31 03:09:10;;;;;;;4.37;3.03;;;;;;;;;;5071310;28;20443;-71
2023/08/31 03:11:37;;;;;;;3.40;3.10;;;;;;;;;;5070888;28;20529;-72
2023/08/31 03:14:04;;;;;;;3.78;2.90;;;;;;;;;;5066684;28;20410;-71
2023/08/31 03:16:31;;;;;;;3.50;2.90;;;;;;;;;;5064935;28;20427;-71
2023/08/31 03:18:58;;;;;;;4.10;2.80;;;;;;;;;;5062631;28;20441;-71
2023/08/31 03:21:25;;;;;;;3.90;2.90;;;;;;;;;;5070297;28;20438;-70
2023/08/31 03:23:52;;;;;;;3.00;2.70;;;;;;;;;;5064565;28;20443;-72
2023/08/31 03:26:21;;;;;;;4.20;2.83;;;;;;;;;;5074253;28;20427;-71
2023/08/31 03:28:48;;;;;;;4.38;3.25;;;;;;;;;;5065923;28;20436;-70
2023/08/31 03:31:15;;;;;;;5.00;3.30;;;;;;;;;;5064079;28;20437;-71
2023/08/31 03:33:42;;;;;;;3.83;3.30;;;;;;;;;;5062108;28;20421;-72
2023/08/31 03:36:09;;;;;;;4.35;3.90;;;;;;;;;;5069175;28;20431;-71
2023/08/31 03:38:38;;;;;;;4.90;4.00;;;;;;;;;;5063886;28;20416;-72
2023/08/31 03:41:05;;;;;;;4.30;3.50;;;;;;;;;;5069095;28;20450;-71
2023/08/31 03:43:33;;;;;;;4.55;3.65;;;;;;;;;;5069545;28;20419;-70
2023/08/31 03:46:00;;;;;;;4.75;3.80;;;;;;;;;;5067095;28;20434;-70
2023/08/31 03:48:28;;;;;;;4.80;3.38;;;;;;;;;;5091454;22;20456;-75
2023/08/31 03:50:56;;;;;;;4.53;3.40;;;;;;;;;;5094274;28;20447;-75
2023/08/31 03:53:23;;;;;;;4.18;3.53;;;;;;;;;;5104810;28;20435;-75
2023/08/31 03:55:50;;;;;;;3.65;3.30;;;;;;;;;;5104314;27;20506;-75
2023/08/31 03:58:17;;;;;;;3.53;3.22;;;;;;;;;;5100912;28;20430;-75
2023/08/31 04:00:46;;;;;;;3.40;3.10;;;;;;;;;;5085539;28;20491;-76
2023/08/31 04:03:13;;;;;;;3.60;3.00;;;;;;;;;;5083654;28;20426;-75
2023/08/31 04:05:40;;;;;;;4.70;3.20;;;;;;;;;;5084825;28;20417;-75
2023/08/31 04:08:07;;;;;;;4.63;3.35;;;;;;;;;;5084820;28;20543;-75
2023/08/31 04:10:34;;;;;;;3.40;3.10;;;;;;;;;;5083192;28;20899;-75
2023/08/31 04:13:01;;;;;;;4.40;3.22;;;;;;;;;;5083132;28;20659;-75
2023/08/31 04:15:30;;;;;;;4.82;3.00;;;;;;;;;;5083917;28;20896;-75
2023/08/31 04:17:59;;;;;;;3.80;3.40;;;;;;;;;;5084037;28;20513;-75
2023/08/31 04:20:26;;;;;;;4.20;3.40;;;;;;;;;;5083869;28;20430;-75
2023/08/31 04:22:53;;;;;;;3.67;3.37;;;;;;;;;;5085079;28;20437;-75
2023/08/31 04:25:20;;;;;;;3.70;3.25;;;;;;;;;;5083587;28;20497;-75
2023/08/31 04:27:47;;;;;;;4.30;3.90;;;;;;;;;;5084796;28;20875;-75
2023/08/31 04:30:14;;;;;;;3.97;3.40;;;;;;;;;;5084217;28;20457;-75
2023/08/31 04:32:41;;;;;;;4.20;3.80;;;;;;;;;;5083999;28;20456;-75
2023/08/31 04:35:10;;;;;;;5.20;3.40;;;;;;;;;;5082471;28;20439;-75
2023/08/31 04:37:37;;;;;;;5.03;3.40;;;;;;;;;;5081928;28;20430;-75
2023/08/31 04:40:05;;;;;;;3.50;3.10;;;;;;;;;;5084731;28;20426;-75
2023/08/31 04:42:32;;;;;;;4.32;3.60;;;;;;;;;;5082238;28;20461;-74
2023/08/31 04:44:59;;;;;;;5.10;4.13;;;;;;;;;;5077403;28;20426;-77
2023/08/31 04:47:26;;;;;;;5.22;4.32;;;;;;;;;;5084392;28;20437;-74
2023/08/31 04:49:53;;;;;;;5.28;3.55;;;;;;;;;;5083339;28;20484;-73
2023/08/31 04:52:21;;;;;;;4.00;3.33;;;;;;;;;;5085267;28;20405;-73
2023/08/31 04:54:48;;;;;;;5.07;4.03;;;;;;;;;;5083812;28;20417;-73
2023/08/31 04:57:15;;;;;;;6.30;4.78;;;;;;;;;;5083822;28;20429;-73
2023/08/31 04:59:42;;;;;;;6.18;4.00;;;;;;;;;;5084719;28;20420;-73
2023/08/31 05:02:09;;;;;;;5.05;4.13;;;;;;;;;;5082628;28;20426;-73
2023/08/31 05:04:37;;;;;;;4.80;4.30;;;;;;;;;;5083551;28;20869;-73
2023/08/31 05:07:04;;;;;;;4.30;3.90;;;;;;;;;;5082975;28;20892;-73
2023/08/31 05:09:34;;;;;;;4.50;4.00;;;;;;;;;;5083102;28;20681;-73
2023/08/31 05:12:02;;;;;;;6.47;4.30;;;;;;;;;;5076594;28;20413;-73
2023/08/31 05:14:29;;;;;;;4.88;4.47;;;;;;;;;;5082253;28;20754;-73
2023/08/31 05:16:56;;;;;;;4.90;4.40;;;;;;;;;;5080058;28;20533;-73
2023/08/31 05:19:24;;;;;;;6.05;4.80;;;;;;;;;;5084751;28;20442;-73
2023/08/31 05:21:51;;;;;;;5.27;3.80;;;;;;;;;;5084541;28;20896;-73
2023/08/31 05:24:18;;;;;;;4.97;3.85;;;;;;;;;;5081588;28;20425;-73
2023/08/31 05:26:46;;;;;;;4.80;4.30;;;;;;;;;;5084412;28;20421;-73
2023/08/31 05:29:13;;;;;;;4.85;4.45;;;;;;;;;;5083016;28;20426;-73
2023/08/31 05:31:41;;;;;;;4.60;4.10;;;;;;;;;;5081181;28;20429;-74
2023/08/31 05:34:08;;;;;;;6.87;4.70;;;;;;;;;;5081342;28;20481;-73
2023/08/31 05:36:35;;;;;;;6.60;4.53;;;;;;;;;;5083248;28;20432;-73
2023/08/31 05:39:02;;;;;;;5.57;4.40;;;;;;;;;;5082738;28;20406;-73
2023/08/31 05:41:29;;;;;;;5.43;4.60;;;;;;;;;;5083529;28;20414;-74
2023/08/31 05:43:58;;;;;;;4.45;4.05;;;;;;;;;;5082188;28;20529;-73
2023/08/31 05:46:25;;;;;;;4.30;3.80;;;;;;;;;;5082254;28;20461;-74
2023/08/31 05:48:53;;;;;;;6.97;4.28;;;;;;;;;;5076234;28;20422;-73
2023/08/31 05:51:20;;;;;;;4.82;4.00;;;;;;;;;;5072255;28;20577;-64
2023/08/31 05:53:47;;;;;;;4.95;4.15;;;;;;;;;;5081355;28;20544;-65
2023/08/31 05:56:14;;;;;;;4.63;3.80;;;;;;;;;;5082708;28;20421;-66
2023/08/31 05:58:41;;;;;;;4.55;3.65;;;;;;;;;;5080548;28;20421;-66
2023/08/31 06:01:10;;;;;;;4.30;3.90;;;;;;;;;;5080003;28;20441;-72
2023/08/31 06:03:37;;;;;;;6.68;3.97;;;;;;;;;;5082201;28;20420;-71
2023/08/31 06:06:04;;;;;;;6.95;4.00;;;;;;;;;;5085577;28;20548;-72
2023/08/31 06:08:31;;;;;;;4.10;3.60;;;;;;;;;;5083741;28;20439;-72
2023/08/31 06:10:58;;;;;;;5.50;3.72;;;;;;;;;;5081877;28;20452;-72
2023/08/31 06:13:25;;;;;;;4.63;3.35;;;;;;;;;;5081252;28;20434;-73
2023/08/31 06:15:52;;;;;;;6.77;3.70;;;;;;;;;;5079130;28;20468;-73
2023/08/31 06:18:21;;;;;;;4.80;3.42;;;;;;;;;;5077877;28;20421;-73
2023/08/31 06:20:49;;;;;;;4.10;3.47;;;;;;;;;;5083991;28;20405;-73
2023/08/31 06:23:16;;;;;;;4.88;3.40;;;;;;;;;;5083844;28;20470;-73
2023/08/31 06:25:45;;;;;;;5.63;3.58;;;;;;;;;;5083856;28;20501;-73
2023/08/31 06:28:12;;;;;;;5.88;3.28;;;;;;;;;;5083155;28;20780;-73
2023/08/31 06:30:40;;;;;;;4.32;3.20;;;;;;;;;;5083511;28;20434;-73
2023/08/31 06:33:07;;;;;;;5.13;3.22;;;;;;;;;;5082530;28;20409;-73
2023/08/31 06:35:35;;;;;;;4.75;2.80;;;;;;;;;;5082720;28;20410;-73
2023/08/31 06:38:02;;;;;;;5.32;3.40;;;;;;;;;;5080734;28;20440;-73
2023/08/31 06:40:29;;;;;;;4.40;2.85;;;;;;;;;;5083452;28;20509;-73
2023/08/31 06:42:57;;;;;;;5.05;3.60;;;;;;;;;;5083812;28;20688;-73
2023/08/31 06:45:24;;;;;;;5.70;3.47;;;;;;;;;;5087200;28;20432;-73
2023/08/31 06:47:51;;;;;;;6.07;3.40;;;;;;;;;;5086800;28;20784;-72
2023/08/31 06:50:18;;;;;;;5.22;3.58;;;;;;;;;;5086991;28;20864;-73
2023/08/31 06:52:46;;;;;;;4.73;3.03;;;;;;;;;;5086061;28;20465;-73
2023/08/31 06:55:13;;;;;;;4.30;2.80;;;;;;;;;;5086663;28;20922;-73
2023/08/31 06:57:41;;;;;;;5.35;2.72;;;;;;;;;;5087134;28;20733;-73
2023/08/31 07:00:11;;;;;;;5.85;3.28;;;;;;;;;;5086738;28;20421;-73
2023/08/31 07:02:41;;;;;;;5.47;3.30;;;;;;;;;;5086119;28;20441;-73
2023/08/31 07:05:08;;;;;;;3.55;2.65;;;;;;;;;;5086896;28;20416;-73
2023/08/31 07:07:35;;;;;;;6.97;3.20;;;;;;;;;;5087914;28;20840;-73
2023/08/31 07:10:05;;;;;;;4.82;2.75;;;;;;;;;;5079932;28;20938;-73
2023/08/31 07:12:32;;;;;;;4.38;2.80;;;;;;;;;;5082139;28;20795;-71
2023/08/31 07:14:59;;;;;;;3.42;2.58;;;;;;;;;;5086023;28;20418;-73
2023/08/31 07:17:26;;;;;;;4.70;2.80;;;;;;;;;;5086378;28;20441;-73
2023/08/31 07:19:54;;;;;;;5.28;2.50;;;;;;;;;;5086484;28;20414;-71
2023/08/31 07:22:21;;;;;;;5.30;2.73;;;;;;;;;;5086098;28;20884;-70
2023/08/31 07:24:48;;;;;;;6.05;2.83;;;;;;;;;;5086575;28;20406;-73
2023/08/31 07:27:16;;;;;;;6.07;3.00;;;;;;;;;;5085832;28;20485;-72
2023/08/31 07:29:43;;;;;;;7.30;2.90;;;;;;;;;;5085285;28;20434;-72
2023/08/31 07:32:10;;;;;;;4.00;2.50;;;;;;;;;;5085679;28;20418;-71
2023/08/31 07:34:37;;;;;;;5.35;2.50;;;;;;;;;;5086036;28;20433;-72
2023/08/31 07:37:06;;;;;;;3.80;2.40;;;;;;;;;;5085206;28;20913;-74
2023/08/31 07:39:33;;;;;;;4.72;2.50;;;;;;;;;;5084404;28;20878;-71
2023/08/31 07:42:00;;;;;;;6.10;2.30;;;;;;;;;;5085330;28;20994;-71
2023/08/31 07:44:28;;;;;;;5.63;2.50;;;;;;;;;;5085115;28;20864;-73
2023/08/31 07:46:55;;;;;;;4.78;2.30;;;;;;;;;;5085665;28;20887;-73
2023/08/31 07:49:22;;;;;;;6.47;2.67;;;;;;;;;;5085340;28;20437;-73
2023/08/31 07:51:50;;;;;;;4.72;2.40;;;;;;;;;;5085543;28;20421;-73
2023/08/31 07:54:21;;;;;;;4.85;1.95;;;;;;;;;;5084890;28;20429;-73
2023/08/31 07:56:48;;;;;;;3.40;2.10;;;;;;;;;;5085598;28;20761;-73
2023/08/31 07:59:15;;;;;;;3.40;1.98;;;;;;;;;;5085144;28;20433;-72
2023/08/31 08:01:43;;;;;;;3.75;1.90;;;;;;;;;;5085493;28;20462;-72
2023/08/31 08:04:10;;;;;;;4.03;2.00;;;;;;;;;;5085086;28;20410;-72
2023/08/31 08:06:37;;;;;;;3.85;1.80;;;;;;;;;;5084855;28;20890;-72
2023/08/31 08:09:05;;;;;;;6.10;2.10;;;;;;;;;;5084683;28;20485;-72
2023/08/31 08:11:32;;;;;;;4.60;2.00;;;;;;;;;;5085351;28;20421;-72
2023/08/31 08:13:59;;;;;;;3.63;1.85;;;;;;;;;;5084960;28;20406;-71
2023/08/31 08:16:26;;;;;;;5.20;2.10;;;;;;;;;;5085419;28;20975;-72
2023/08/31 08:18:54;;;;;;;3.60;2.10;;;;;;;;;;5084993;28;20492;-72
2023/08/31 08:21:21;;;;;;;5.18;2.22;;;;;;;;;;5084849;28;20410;-72
2023/08/31 08:23:50;;;;;;;3.43;2.00;;;;;;;;;;5085753;28;20429;-72
2023/08/31 08:26:17;;;;;;;3.00;1.88;;;;;;;;;;5085049;28;20522;-72
2023/08/31 08:28:45;;;;;;;3.20;1.80;;;;;;;;;;5082381;28;20417;-72
2023/08/31 08:31:12;;;;;;;4.78;2.10;;;;;;;;;;5084324;28;21173;-72
2023/08/31 08:33:40;;;;;;;3.77;1.80;;;;;;;;;;5084504;28;20410;-72
2023/08/31 08:36:08;;;;;;;3.20;1.90;;;;;;;;;;5085021;28;20418;-72
2023/08/31 08:38:35;;;;;;;3.10;1.85;;;;;;;;;;5084068;28;20422;-72
2023/08/31 08:41:06;;;;;;;5.10;2.15;;;;;;;;;;5084737;28;20698;-72
2023/08/31 08:43:34;;;;;;;6.35;2.40;;;;;;;;;;5084077;28;20422;-72
2023/08/31 08:46:05;;;;;;;3.25;1.70;;;;;;;;;;5084015;28;20410;-72
2023/08/31 08:48:34;;;;;;;3.20;1.60;;;;;;;;;;5084186;28;20421;-72
2023/08/31 08:51:02;;;;;;;6.25;2.30;;;;;;;;;;5083682;28;20458;-73
2023/08/31 08:53:30;;;;;;;5.10;2.20;;;;;;;;;;5083978;28;20414;-72
2023/08/31 08:55:58;;;;;;;3.38;1.90;;;;;;;;;;5083838;28;20749;-72
2023/08/31 08:58:25;;;;;;;3.70;2.03;;;;;;;;;;5083760;28;20877;-73
2023/08/31 09:00:53;;;;;;;3.55;2.10;;;;;;;;;;5079378;28;20409;-72
2023/08/31 09:03:20;;;;;;;3.63;1.65;;;;;;;;;;5083317;28;20512;-72
2023/08/31 09:05:47;;;;;;;3.55;1.50;;;;;;;;;;5083193;28;20479;-72
2023/08/31 09:08:15;;;;;;;4.03;1.77;;;;;;;;;;5083736;28;20769;-72
2023/08/31 09:10:44;;;;;;;3.20;1.85;;;;;;;;;;5083450;28;20526;-72
2023/08/31 09:13:12;;;;;;;4.40;2.00;;;;;;;;;;5083845;28;20604;-72
2023/08/31 09:15:43;;;;;;;3.13;1.50;;;;;;;;;;5083887;28;20421;-72
2023/08/31 09:18:15;;;;;;;3.80;1.85;;;;;;;;;;5084662;28;20801;-73
2023/08/31 09:20:45;;;;;;;4.65;2.10;;;;;;;;;;5083232;28;20411;-72
2023/08/31 09:23:12;;;;;;;3.97;1.60;;;;;;;;;;5083321;28;20413;-73
2023/08/31 09:25:44;;;;;;;4.05;2.00;;;;;;;;;;5083396;28;20868;-73
2023/08/31 09:28:11;;;;;;;3.90;1.40;;;;;;;;;;5083944;28;20565;-72
2023/08/31 09:30:40;;;;;;;2.20;1.50;;;;;;;;;;5083737;28;20426;-72
2023/08/31 09:33:08;;;;;;;2.55;1.40;;;;;;;;;;5078671;28;20939;-73
2023/08/31 09:35:36;;;;;;;3.95;1.70;;;;;;;;;;5083295;28;20421;-73
2023/08/31 09:38:03;;;;;;;3.00;1.50;;;;;;;;;;5083012;28;20924;-72
2023/08/31 09:40:30;;;;;;;6.50;2.70;;;;;;;;;;5083774;28;20880;-72
2023/08/31 09:42:58;;;;;;;3.63;1.80;;;;;;;;;;5084073;28;20730;-73
2023/08/31 09:45:31;;;;;;;5.70;2.20;;;;;;;;;;5083431;28;20437;-73
2023/08/31 09:47:59;;;;;;;2.65;1.60;;;;;;;;;;5082742;28;20417;-73
2023/08/31 09:50:27;;;;;;;3.08;1.60;;;;;;;;;;5087583;22;20800;-72
2023/08/31 09:52:55;;;;;;;4.00;1.40;;;;;;;;;;5054717;28;20775;-70
2023/08/31 09:55:23;;;;;;;2.80;1.30;;;;;;;;;;5049970;28;20413;-70
2023/08/31 09:57:51;;;;;;;3.00;1.40;;;;;;;;;;5063154;28;20418;-69
2023/08/31 10:00:19;;;;;;;2.38;1.20;;;;;;;;;;5060519;28;20415;-70
2023/08/31 10:02:47;;;;;;;2.50;1.42;;;;;;;;;;5058366;28;20411;-70
2023/08/31 10:05:15;;;;;;;1.63;1.20;;;;;;;;;;5070047;28;20408;-70
2023/08/31 10:07:43;;;;;;;3.90;1.20;;;;;;;;;;5073604;28;20645;-70
2023/08/31 10:10:10;;;;;;;4.00;1.13;;;;;;;;;;5069104;28;21112;-70
2023/08/31 10:12:38;;;;;;;3.00;1.20;;;;;;;;;;5068682;28;20408;-70
2023/08/31 10:15:06;;;;;;;3.60;1.30;;;;;;;;;;5060198;28;20409;-71
2023/08/31 10:17:35;;;;;;;3.20;1.30;;;;;;;;;;5077147;28;20396;-70
2023/08/31 10:20:02;;;;;;;1.80;1.30;;;;;;;;;;5094212;28;20394;-72
2023/08/31 10:22:30;;;;;;;2.60;1.60;;;;;;;;;;5092108;28;20482;-70
2023/08/31 10:25:03;;;;;;;2.50;1.20;;;;;;;;;;5078835;28;20407;-70
2023/08/31 10:27:30;;;;;;;4.10;1.40;;;;;;;;;;5072369;28;20424;-73
2023/08/31 10:29:57;;;;;;;2.17;1.10;;;;;;;;;;5086505;28;20430;-71
2023/08/31 10:32:24;;;;;;;3.85;1.50;;;;;;;;;;5081179;28;20476;-68
2023/08/31 10:35:09;;;;;;;2.72;1.10;;;;;;;;;;5075888;28;20512;-70
2023/08/31 10:37:36;;;;;;;2.95;1.13;;;;;;;;;;5075705;28;20413;-70
2023/08/31 10:40:11;;;;;;;3.78;1.30;;;;;;;;;;5080442;28;20408;-72
2023/08/31 10:42:45;;;;;;;2.60;1.10;;;;;;;;;;5070155;28;20506;-69
2023/08/31 10:45:12;;;;;;;2.10;1.13;;;;;;;;;;5068425;28;20737;-70
2023/08/31 10:47:39;;;;;;;2.33;1.20;;;;;;;;;;5063279;28;20923;-70
2023/08/31 10:50:23;;;;;;;2.22;1.17;;;;;;;;;;5069478;28;20427;-73
2023/08/31 10:52:51;;;;;;;3.20;1.40;;;;;;;;;;5075356;28;20406;-71
2023/08/31 10:55:18;;;;;;;2.70;1.30;;;;;;;;;;5072534;28;20423;-70
2023/08/31 10:57:45;;;;;;;3.00;1.40;;;;;;;;;;5073988;28;20439;-71
2023/08/31 11:00:13;;;;;;;3.00;1.60;;;;;;;;;;5069071;28;20439;-72
2023/08/31 11:02:43;;;;;;;3.45;1.60;;;;;;;;;;5062825;28;20892;-72
2023/08/31 11:05:11;;;;;;;3.47;1.80;;;;;;;;;;5074319;28;20414;-72
2023/08/31 11:07:40;;;;;;;3.27;1.57;;;;;;;;;;5055684;28;20417;-72
2023/08/31 11:10:17;;;;;;;2.95;1.60;;;;;;;;;;5061092;28;20465;-71
2023/08/31 11:12:45;;;;;;;3.90;2.10;;;;;;;;;;5055046;28;20429;-70
2023/08/31 11:15:14;;;;;;;3.63;1.70;;;;;;;;;;5060591;28;20496;-72
2023/08/31 11:17:41;;;;;;;4.40;1.63;;;;;;;;;;5071999;28;20952;-72
2023/08/31 11:20:09;;;;;;;3.10;1.75;;;;;;;;;;5066019;28;20467;-70
2023/08/31 11:22:39;;;;;;;2.35;1.60;;;;;;;;;;5072220;28;20788;-71
2023/08/31 11:25:08;;;;;;;3.90;1.50;;;;;;;;;;5072165;28;20403;-70
2023/08/31 11:27:37;;;;;;;3.70;1.60;;;;;;;;;;5072395;28;20419;-70
2023/08/31 11:30:04;;;;;;;4.10;1.60;;;;;;;;;;5061411;28;20472;-70
2023/08/31 11:32:31;;;;;;;3.97;1.80;;;;;;;;;;5069428;28;20414;-73
2023/08/31 11:34:58;;;;;;;3.30;1.80;;;;;;;;;;5078356;28;20786;-72
2023/08/31 11:37:26;;;;;;;3.80;1.90;;;;;;;;;;5065483;28;20888;-72
2023/08/31 11:39:54;;;;;;;6.00;2.50;;;;;;;;;;5069323;28;20412;-71
2023/08/31 11:42:23;;;;;;;2.78;1.70;;;;;;;;;;5064895;28;20409;-72
2023/08/31 11:44:50;;;;;;;2.90;2.08;;;;;;;;;;5058459;28;20427;-71
2023/08/31 11:47:18;;;;;;;3.40;2.10;;;;;;;;;;5065926;28;20413;-69
2023/08/31 11:49:45;;;;;;;2.63;1.70;;;;;;;;;;5066585;28;20418;-72
2023/08/31 11:52:12;;;;;;;4.20;1.80;;;;;;;;;;5058169;28;20437;-71
2023/08/31 11:54:40;;;;;;;3.10;1.75;;;;;;;;;;5069240;28;20415;-68
2023/08/31 11:57:09;;;;;;;3.43;1.60;;;;;;;;;;5068182;28;20413;-71
2023/08/31 11:59:38;;;;;;;3.10;2.00;;;;;;;;;;5069021;28;20836;-70
2023/08/31 12:02:07;;;;;;;2.33;1.40;;;;;;;;;;5058992;28;20417;-69
2023/08/31 12:04:34;;;;;;;2.28;1.52;;;;;;;;;;5063760;28;20417;-68
2023/08/31 12:07:03;;;;;;;2.25;1.20;;;;;;;;;;5063994;28;20427;-70
2023/08/31 12:09:31;;;;;;;2.30;1.50;;;;;;;;;;5075558;28;20445;-72
2023/08/31 12:12:00;;;;;;;2.45;1.60;;;;;;;;;;5065340;28;20447;-71
2023/08/31 12:14:27;;;;;;;3.20;1.50;;;;;;;;;;5071087;28;20436;-70
2023/08/31 12:17:03;;;;;;;2.92;1.67;;;;;;;;;;5069691;28;20411;-69
2023/08/31 12:19:30;;;;;;;2.30;1.50;;;;;;;;;;5075706;28;20407;-69
2023/08/31 12:21:58;;;;;;;3.03;1.10;;;;;;;;;;5079800;28;20599;-70
2023/08/31 12:24:25;;;;;;;3.45;1.30;;;;;;;;;;5080241;28;20416;-72
2023/08/31 12:26:54;;;;;;;2.67;1.70;;;;;;;;;;5078014;28;20465;-69
2023/08/31 12:29:21;;;;;;;2.55;1.55;;;;;;;;;;5068622;28;20412;-71
2023/08/31 12:31:48;;;;;;;5.53;1.83;;;;;;;;;;5067298;28;20424;-71
2023/08/31 12:34:16;;;;;;;3.70;1.67;;;;;;;;;;5070572;28;20415;-70
2023/08/31 12:36:43;;;;;;;5.07;2.08;;;;;;;;;;5061504;28;20408;-71
2023/08/31 12:39:11;;;;;;;3.38;1.80;;;;;;;;;;5070701;28;20418;-68
2023/08/31 12:41:39;;;;;;;4.80;2.50;;;;;;;;;;5065182;28;20414;-70
2023/08/31 12:44:06;;;;;;;4.13;1.63;;;;;;;;;;5066420;28;20921;-72
2023/08/31 12:46:33;;;;;;;3.60;1.50;;;;;;;;;;5064054;28;20403;-71
2023/08/31 12:49:01;;;;;;;2.88;1.23;;;;;;;;;;5060533;28;20513;-72
2023/08/31 12:51:30;;;;;;;3.80;1.90;;;;;;;;;;5067447;28;20965;-73
2023/08/31 12:53:57;;;;;;;3.05;1.40;;;;;;;;;;5055705;28;20430;-73
2023/08/31 12:56:24;;;;;;;3.20;1.40;;;;;;;;;;5059787;28;20418;-73
2023/08/31 12:58:51;;;;;;;3.65;1.80;;;;;;;;;;5060825;28;20432;-71
2023/08/31 13:01:19;;;;;;;3.43;1.70;;;;;;;;;;5063472;28;20408;-74
2023/08/31 13:03:46;;;;;;;2.65;1.58;;;;;;;;;;5061577;28;20408;-74
2023/08/31 13:06:14;;;;;;;3.60;1.38;;;;;;;;;;5059133;28;20973;-72
2023/08/31 13:08:43;;;;;;;3.22;1.63;;;;;;;;;;5059824;28;20588;-73
2023/08/31 13:11:10;;;;;;;2.03;1.50;;;;;;;;;;5063770;28;20468;-74
2023/08/31 13:13:37;;;;;;;2.53;1.50;;;;;;;;;;5066843;28;20412;-75
2023/08/31 13:16:04;;;;;;;2.13;1.30;;;;;;;;;;5063883;28;20437;-74
2023/08/31 13:18:31;;;;;;;3.05;1.70;;;;;;;;;;5056393;28;20416;-74
2023/08/31 13:20:58;;;;;;;4.90;1.60;;;;;;;;;;5065439;28;20490;-73
2023/08/31 13:23:25;;;;;;;3.10;1.53;;;;;;;;;;5055980;28;20412;-75
2023/08/31 13:25:56;;;;;;;2.83;1.60;;;;;;;;;;5059298;28;20412;-76
2023/08/31 13:28:23;;;;;;;4.13;1.70;;;;;;;;;;5059275;28;20489;-74
2023/08/31 13:30:50;;;;;;;4.32;2.00;;;;;;;;;;5057456;28;20773;-75
2023/08/31 13:33:17;;;;;;;3.78;1.95;;;;;;;;;;5070045;28;20429;-73
2023/08/31 13:35:44;;;;;;;2.30;1.80;;;;;;;;;;5074461;28;20418;-79
2023/08/31 13:38:11;;;;;;;2.20;1.63;;;;;;;;;;5073909;28;20423;-73
2023/08/31 13:40:38;;;;;;;3.40;1.80;;;;;;;;;;5069031;28;20419;-75
2023/08/31 13:43:06;;;;;;;3.63;2.00;;;;;;;;;;5065072;28;20803;-74
2023/08/31 13:45:34;;;;;;;3.20;1.90;;;;;;;;;;5061152;28;20438;-76
2023/08/31 13:48:01;;;;;;;2.70;1.80;;;;;;;;;;5067077;28;20415;-74
2023/08/31 13:50:28;;;;;;;2.22;1.70;;;;;;;;;;5060413;28;20411;-76
2023/08/31 13:52:55;;;;;;;5.57;2.35;;;;;;;;;;5062242;28;20428;-74
2023/08/31 13:55:23;;;;;;;3.42;1.73;;;;;;;;;;5056244;28;20424;-76
2023/08/31 13:57:50;;;;;;;3.97;1.45;;;;;;;;;;5065329;28;20428;-73
2023/08/31 14:00:18;;;;;;;3.20;2.00;;;;;;;;;;5060494;28;20417;-75
2023/08/31 14:02:45;;;;;;;3.30;1.50;;;;;;;;;;5067749;28;20411;-75
2023/08/31 14:05:14;;;;;;;3.97;1.42;;;;;;;;;;5049596;28;20415;-73
2023/08/31 14:07:41;;;;;;;2.40;1.30;;;;;;;;;;5064536;28;20538;-74
2023/08/31 14:10:09;;;;;;;1.40;1.10;;;;;;;;;;5060038;28;20974;-74
2023/08/31 14:12:36;;;;;;;2.63;1.40;;;;;;;;;;5071734;28;20507;-76
2023/08/31 14:15:04;;;;;;;2.00;1.52;;;;;;;;;;5068706;28;20783;-76
2023/08/31 14:17:32;;;;;;;3.03;1.60;;;;;;;;;;5060267;28;20409;-75
2023/08/31 14:20:00;;;;;;;2.00;1.20;;;;;;;;;;5052075;28;20417;-76
2023/08/31 14:22:28;;;;;;;2.60;1.60;;;;;;;;;;5062635;28;20405;-75
2023/08/31 14:24:55;;;;;;;2.72;1.30;;;;;;;;;;5057928;28;20515;-75
2023/08/31 14:27:22;;;;;;;3.22;1.55;;;;;;;;;;5067015;28;20438;-75
2023/08/31 14:29:49;;;;;;;2.30;1.20;;;;;;;;;;5058566;28;20911;-77
2023/08/31 14:32:17;;;;;;;2.15;1.10;;;;;;;;;;5063641;28;20435;-76
2023/08/31 14:34:45;;;;;;;2.65;1.30;;;;;;;;;;5060559;28;20413;-76
2023/08/31 14:37:12;;;;;;;2.33;1.10;;;;;;;;;;5060601;28;20481;-73
2023/08/31 14:39:39;;;;;;;2.10;1.40;;;;;;;;;;5068699;28;20424;-78
2023/08/31 14:42:06;;;;;;;2.00;1.25;;;;;;;;;;5056404;28;20903;-77
2023/08/31 14:44:34;;;;;;;3.30;1.50;;;;;;;;;;5061542;28;20423;-78
2023/08/31 14:47:01;;;;;;;1.70;1.20;;;;;;;;;;5090325;28;20442;-79